sensor_id;sensor_type;location;lat;lon;timestamp;P1;durP1;ratioP1;P2;durP2;ratioP2
4500;SDS011;2263;54.654;9.410;2023-04-09T14:51:29;16.43;;;8.20;;
4500;SDS011;2263;54.654;9.410;2023-04-09T14:53:57;14.10;;;8.53;;
4500;SDS011;2263;54.654;9.410;2023-04-09T14:56:25;14.90;;;9.30;;
4500;SDS011;2263;54.654;9.410;2023-04-09T14:58:53;14.67;;;8.20;;
4500;SDS011;2263;54.654;9.410;2023-04-09T15:01:20;11.73;;;8.37;;
4500;SDS011;2263;54.654;9.410;2023-04-09T15:03:48;11.17;;;8.53;;
4500;SDS011;2263;54.654;9.410;2023-04-09T15:06:16;15.03;;;9.30;;
4500;SDS011;2263;54.654;9.410;2023-04-09T15:08:44;10.43;;;8.33;;
4500;SDS011;2263;54.654;9.410;2023-04-09T15:11:19;10.70;;;7.80;;
4500;SDS011;2263;54.654;9.410;2023-04-09T15:13:49;8.90;;;7.87;;
4500;SDS011;2263;54.654;9.410;2023-04-09T15:16:21;11.67;;;8.17;;
4500;SDS011;2263;54.654;9.410;2023-04-09T15:18:50;12.60;;;8.73;;
4500;SDS011;2263;54.654;9.410;2023-04-09T15:21:18;10.40;;;8.03;;
4500;SDS011;2263;54.654;9.410;2023-04-09T15:23:46;9.90;;;8.07;;
4500;SDS011;2263;54.654;9.410;2023-04-09T15:26:16;10.50;;;8.00;;
4500;SDS011;2263;54.654;9.410;2023-04-09T15:28:43;8.83;;;6.50;;
4500;SDS011;2263;54.654;9.410;2023-04-09T15:31:11;16.60;;;7.37;;
4500;SDS011;2263;54.654;9.410;2023-04-09T15:33:42;11.30;;;7.77;;
4500;SDS011;2263;54.654;9.410;2023-04-09T15:36:11;10.63;;;8.20;;
4500;SDS011;2263;54.654;9.410;2023-04-09T15:38:38;10.77;;;7.53;;
4500;SDS011;2263;54.654;9.410;2023-04-09T15:41:06;11.77;;;8.43;;
4500;SDS011;2263;54.654;9.410;2023-04-09T15:43:34;7.20;;;6.50;;
4500;SDS011;2263;54.654;9.410;2023-04-09T15:46:08;14.93;;;7.67;;
4500;SDS011;2263;54.654;9.410;2023-04-09T15:48:36;10.43;;;8.27;;
4500;SDS011;2263;54.654;9.410;2023-04-09T15:51:04;11.63;;;9.23;;
4500;SDS011;2263;54.654;9.410;2023-04-09T15:53:32;15.57;;;8.77;;
4500;SDS011;2263;54.654;9.410;2023-04-09T15:55:59;9.80;;;8.73;;
4500;SDS011;2263;54.654;9.410;2023-04-09T15:58:27;11.20;;;8.93;;
4500;SDS011;2263;54.654;9.410;2023-04-09T16:00:55;15.00;;;10.50;;
4500;SDS011;2263;54.654;9.410;2023-04-09T16:03:22;12.27;;;9.10;;
4500;SDS011;2263;54.654;9.410;2023-04-09T16:05:50;10.77;;;8.00;;
4500;SDS011;2263;54.654;9.410;2023-04-09T16:08:18;13.33;;;8.00;;
4500;SDS011;2263;54.654;9.410;2023-04-09T16:10:45;14.87;;;9.80;;
4500;SDS011;2263;54.654;9.410;2023-04-09T16:13:13;11.70;;;8.50;;
4500;SDS011;2263;54.654;9.410;2023-04-09T16:15:41;12.00;;;8.17;;
4500;SDS011;2263;54.654;9.410;2023-04-09T16:18:08;10.27;;;7.83;;
4500;SDS011;2263;54.654;9.410;2023-04-09T16:20:37;10.00;;;7.90;;
4500;SDS011;2263;54.654;9.410;2023-04-09T16:23:04;15.80;;;8.33;;
4500;SDS011;2263;54.654;9.410;2023-04-09T16:25:32;10.63;;;6.33;;
4500;SDS011;2263;54.654;9.410;2023-04-09T16:28:01;6.70;;;5.97;;
4500;SDS011;2263;54.654;9.410;2023-04-09T16:30:29;8.30;;;7.50;;
4500;SDS011;2263;54.654;9.410;2023-04-09T16:32:57;8.80;;;7.67;;
4500;SDS011;2263;54.654;9.410;2023-04-09T16:35:24;6.73;;;6.20;;
4500;SDS011;2263;54.654;9.410;2023-04-09T16:37:52;6.60;;;5.80;;
4500;SDS011;2263;54.654;9.410;2023-04-09T16:40:20;6.80;;;6.10;;
4500;SDS011;2263;54.654;9.410;2023-04-09T16:42:50;9.30;;;6.20;;
4500;SDS011;2263;54.654;9.410;2023-04-09T16:45:17;8.30;;;6.63;;
4500;SDS011;2263;54.654;9.410;2023-04-09T16:47:45;9.30;;;6.40;;
4500;SDS011;2263;54.654;9.410;2023-04-09T16:50:16;8.97;;;6.37;;
4500;SDS011;2263;54.654;9.410;2023-04-09T16:52:45;9.70;;;6.60;;
4500;SDS011;2263;54.654;9.410;2023-04-09T16:55:13;19.80;;;7.27;;
4500;SDS011;2263;54.654;9.410;2023-04-09T16:57:40;8.77;;;6.37;;
4500;SDS011;2263;54.654;9.410;2023-04-09T17:00:08;7.37;;;5.13;;
4500;SDS011;2263;54.654;9.410;2023-04-09T17:02:38;7.23;;;6.50;;
4500;SDS011;2263;54.654;9.410;2023-04-09T17:05:06;8.20;;;6.60;;
4500;SDS011;2263;54.654;9.410;2023-04-09T17:07:34;9.60;;;7.03;;
4500;SDS011;2263;54.654;9.410;2023-04-09T17:10:02;8.40;;;6.47;;
4500;SDS011;2263;54.654;9.410;2023-04-09T17:12:30;9.27;;;6.37;;
4500;SDS011;2263;54.654;9.410;2023-04-09T17:14:58;10.40;;;6.80;;
4500;SDS011;2263;54.654;9.410;2023-04-09T17:17:26;9.10;;;6.30;;
4500;SDS011;2263;54.654;9.410;2023-04-09T17:19:54;11.53;;;7.03;;
4500;SDS011;2263;54.654;9.410;2023-04-09T17:22:24;13.47;;;7.57;;
4500;SDS011;2263;54.654;9.410;2023-04-09T17:24:51;10.37;;;7.90;;
4500;SDS011;2263;54.654;9.410;2023-04-09T17:27:19;9.73;;;7.30;;
4500;SDS011;2263;54.654;9.410;2023-04-09T17:29:47;10.57;;;6.80;;
4500;SDS011;2263;54.654;9.410;2023-04-09T17:32:15;11.73;;;7.83;;
4500;SDS011;2263;54.654;9.410;2023-04-09T17:34:45;12.33;;;7.73;;
4500;SDS011;2263;54.654;9.410;2023-04-09T17:37:14;9.03;;;8.10;;
4500;SDS011;2263;54.654;9.410;2023-04-09T17:39:41;10.87;;;9.00;;
4500;SDS011;2263;54.654;9.410;2023-04-09T17:42:09;11.37;;;9.37;;
4500;SDS011;2263;54.654;9.410;2023-04-09T17:44:37;10.47;;;7.10;;
4500;SDS011;2263;54.654;9.410;2023-04-09T17:47:05;15.00;;;9.27;;
4500;SDS011;2263;54.654;9.410;2023-04-09T17:49:33;11.50;;;8.63;;
4500;SDS011;2263;54.654;9.410;2023-04-09T17:52:00;12.77;;;8.67;;
4500;SDS011;2263;54.654;9.410;2023-04-09T17:54:32;12.83;;;9.00;;
4500;SDS011;2263;54.654;9.410;2023-04-09T17:57:00;13.60;;;9.50;;
4500;SDS011;2263;54.654;9.410;2023-04-09T17:59:30;15.10;;;10.17;;
4500;SDS011;2263;54.654;9.410;2023-04-09T18:02:00;17.13;;;10.03;;
4500;SDS011;2263;54.654;9.410;2023-04-09T18:04:28;11.10;;;9.43;;
4500;SDS011;2263;54.654;9.410;2023-04-09T18:06:55;20.97;;;11.93;;
4500;SDS011;2263;54.654;9.410;2023-04-09T18:09:23;23.60;;;10.20;;
4500;SDS011;2263;54.654;9.410;2023-04-09T18:11:51;18.80;;;11.57;;
4500;SDS011;2263;54.654;9.410;2023-04-09T18:14:22;24.37;;;11.00;;
4500;SDS011;2263;54.654;9.410;2023-04-09T18:16:49;16.70;;;11.80;;
4500;SDS011;2263;54.654;9.410;2023-04-09T18:19:17;20.37;;;11.80;;
4500;SDS011;2263;54.654;9.410;2023-04-09T18:21:45;19.40;;;11.73;;
4500;SDS011;2263;54.654;9.410;2023-04-09T18:24:13;14.47;;;11.30;;
4500;SDS011;2263;54.654;9.410;2023-04-09T18:26:41;14.97;;;11.50;;
4500;SDS011;2263;54.654;9.410;2023-04-09T18:29:08;21.80;;;11.10;;
4500;SDS011;2263;54.654;9.410;2023-04-09T18:31:36;15.13;;;10.77;;
4500;SDS011;2263;54.654;9.410;2023-04-09T18:34:03;24.43;;;13.53;;
4500;SDS011;2263;54.654;9.410;2023-04-09T18:36:31;27.17;;;12.57;;
4500;SDS011;2263;54.654;9.410;2023-04-09T18:38:59;19.73;;;11.97;;
4500;SDS011;2263;54.654;9.410;2023-04-09T18:41:27;26.07;;;13.37;;
4500;SDS011;2263;54.654;9.410;2023-04-09T18:43:55;17.17;;;10.87;;
4500;SDS011;2263;54.654;9.410;2023-04-09T18:46:23;18.90;;;11.63;;
4500;SDS011;2263;54.654;9.410;2023-04-09T18:48:51;20.00;;;12.77;;
4500;SDS011;2263;54.654;9.410;2023-04-09T18:51:19;17.63;;;11.17;;
4500;SDS011;2263;54.654;9.410;2023-04-09T18:53:46;20.20;;;14.13;;
4500;SDS011;2263;54.654;9.410;2023-04-09T18:56:18;22.77;;;12.50;;
4500;SDS011;2263;54.654;9.410;2023-04-09T18:58:50;21.60;;;11.90;;
4500;SDS011;2263;54.654;9.410;2023-04-09T19:01:19;16.40;;;11.50;;
4500;SDS011;2263;54.654;9.410;2023-04-09T19:03:47;22.10;;;12.23;;
4500;SDS011;2263;54.654;9.410;2023-04-09T19:06:15;22.67;;;13.93;;
4500;SDS011;2263;54.654;9.410;2023-04-09T19:08:45;24.97;;;15.27;;
4500;SDS011;2263;54.654;9.410;2023-04-09T19:11:13;18.00;;;15.20;;
4500;SDS011;2263;54.654;9.410;2023-04-09T19:13:41;24.53;;;13.60;;
4500;SDS011;2263;54.654;9.410;2023-04-09T19:16:09;21.60;;;13.60;;
4500;SDS011;2263;54.654;9.410;2023-04-09T19:18:37;18.43;;;13.27;;
4500;SDS011;2263;54.654;9.410;2023-04-09T19:21:05;17.50;;;13.30;;
4500;SDS011;2263;54.654;9.410;2023-04-09T19:23:33;20.83;;;14.20;;
4500;SDS011;2263;54.654;9.410;2023-04-09T19:26:01;17.77;;;14.40;;
4500;SDS011;2263;54.654;9.410;2023-04-09T19:28:29;17.83;;;13.43;;
4500;SDS011;2263;54.654;9.410;2023-04-09T19:30:58;19.00;;;13.40;;
4500;SDS011;2263;54.654;9.410;2023-04-09T19:33:29;20.87;;;13.83;;
4500;SDS011;2263;54.654;9.410;2023-04-09T19:35:56;22.60;;;14.43;;
4500;SDS011;2263;54.654;9.410;2023-04-09T19:38:24;20.10;;;14.40;;
4500;SDS011;2263;54.654;9.410;2023-04-09T19:40:52;22.33;;;15.10;;
4500;SDS011;2263;54.654;9.410;2023-04-09T19:43:19;24.13;;;15.20;;
4500;SDS011;2263;54.654;9.410;2023-04-09T19:45:47;21.37;;;15.70;;
4500;SDS011;2263;54.654;9.410;2023-04-09T19:48:14;24.23;;;15.63;;
4500;SDS011;2263;54.654;9.410;2023-04-09T19:50:42;26.20;;;16.90;;
4500;SDS011;2263;54.654;9.410;2023-04-09T19:53:11;22.50;;;15.00;;
4500;SDS011;2263;54.654;9.410;2023-04-09T19:55:38;23.63;;;15.23;;
4500;SDS011;2263;54.654;9.410;2023-04-09T19:58:06;24.73;;;16.60;;
4500;SDS011;2263;54.654;9.410;2023-04-09T20:00:33;19.03;;;15.03;;
4500;SDS011;2263;54.654;9.410;2023-04-09T20:03:01;23.53;;;14.77;;
4500;SDS011;2263;54.654;9.410;2023-04-09T20:05:31;23.80;;;16.57;;
4500;SDS011;2263;54.654;9.410;2023-04-09T20:07:59;21.60;;;14.63;;
4500;SDS011;2263;54.654;9.410;2023-04-09T20:10:26;30.97;;;16.40;;
4500;SDS011;2263;54.654;9.410;2023-04-09T20:12:54;26.00;;;14.57;;
4500;SDS011;2263;54.654;9.410;2023-04-09T20:15:22;23.93;;;15.07;;
4500;SDS011;2263;54.654;9.410;2023-04-09T20:17:49;21.87;;;12.97;;
4500;SDS011;2263;54.654;9.410;2023-04-09T20:20:18;23.23;;;14.03;;
4500;SDS011;2263;54.654;9.410;2023-04-09T20:22:46;17.87;;;13.40;;
4500;SDS011;2263;54.654;9.410;2023-04-09T20:25:22;22.70;;;13.53;;
4500;SDS011;2263;54.654;9.410;2023-04-09T20:27:51;25.27;;;14.13;;
4500;SDS011;2263;54.654;9.410;2023-04-09T20:30:20;22.07;;;13.10;;
4500;SDS011;2263;54.654;9.410;2023-04-09T20:32:48;24.03;;;14.63;;
4500;SDS011;2263;54.654;9.410;2023-04-09T20:35:16;20.90;;;14.10;;
4500;SDS011;2263;54.654;9.410;2023-04-09T20:37:43;23.03;;;14.70;;
4500;SDS011;2263;54.654;9.410;2023-04-09T20:40:14;24.20;;;16.90;;
4500;SDS011;2263;54.654;9.410;2023-04-09T20:42:42;21.37;;;14.70;;
4500;SDS011;2263;54.654;9.410;2023-04-09T20:45:10;32.27;;;15.57;;
4500;SDS011;2263;54.654;9.410;2023-04-09T20:47:37;26.43;;;16.57;;
4500;SDS011;2263;54.654;9.410;2023-04-09T20:50:05;31.50;;;16.43;;
4500;SDS011;2263;54.654;9.410;2023-04-09T20:52:33;27.07;;;18.20;;
4500;SDS011;2263;54.654;9.410;2023-04-09T20:55:01;25.80;;;16.20;;
4500;SDS011;2263;54.654;9.410;2023-04-09T20:57:28;25.77;;;15.73;;
4500;SDS011;2263;54.654;9.410;2023-04-09T20:59:56;31.97;;;16.77;;
4500;SDS011;2263;54.654;9.410;2023-04-09T21:02:23;20.80;;;13.63;;
4500;SDS011;2263;54.654;9.410;2023-04-09T21:04:51;27.37;;;15.60;;
4500;SDS011;2263;54.654;9.410;2023-04-09T21:07:19;24.50;;;15.63;;
4500;SDS011;2263;54.654;9.410;2023-04-09T21:09:46;27.80;;;15.77;;
4500;SDS011;2263;54.654;9.410;2023-04-09T21:12:14;26.83;;;16.60;;
4500;SDS011;2263;54.654;9.410;2023-04-09T21:14:42;17.73;;;13.60;;
4500;SDS011;2263;54.654;9.410;2023-04-09T21:17:09;25.53;;;16.00;;
4500;SDS011;2263;54.654;9.410;2023-04-09T21:19:37;22.33;;;13.70;;
4500;SDS011;2263;54.654;9.410;2023-04-09T21:22:04;25.57;;;14.87;;
4500;SDS011;2263;54.654;9.410;2023-04-09T21:24:32;23.07;;;15.37;;
4500;SDS011;2263;54.654;9.410;2023-04-09T21:27:00;23.00;;;14.50;;
4500;SDS011;2263;54.654;9.410;2023-04-09T21:29:32;22.10;;;14.43;;
4500;SDS011;2263;54.654;9.410;2023-04-09T21:32:03;32.03;;;17.33;;
4500;SDS011;2263;54.654;9.410;2023-04-09T21:34:30;23.03;;;16.03;;
4500;SDS011;2263;54.654;9.410;2023-04-09T21:37:00;28.87;;;14.83;;
4500;SDS011;2263;54.654;9.410;2023-04-09T21:39:29;22.23;;;13.57;;
4500;SDS011;2263;54.654;9.410;2023-04-09T21:41:57;26.53;;;14.60;;
4500;SDS011;2263;54.654;9.410;2023-04-09T21:44:24;26.40;;;13.67;;
4500;SDS011;2263;54.654;9.410;2023-04-09T21:46:52;23.53;;;14.80;;
4500;SDS011;2263;54.654;9.410;2023-04-09T21:49:19;26.40;;;16.10;;
4500;SDS011;2263;54.654;9.410;2023-04-09T21:51:47;28.60;;;15.73;;
4500;SDS011;2263;54.654;9.410;2023-04-09T21:54:15;22.17;;;14.27;;
4500;SDS011;2263;54.654;9.410;2023-04-09T21:56:42;22.13;;;14.87;;
4500;SDS011;2263;54.654;9.410;2023-04-09T21:59:10;20.93;;;14.17;;
4500;SDS011;2263;54.654;9.410;2023-04-09T22:01:37;22.43;;;15.00;;
4500;SDS011;2263;54.654;9.410;2023-04-09T22:04:05;25.30;;;14.93;;
4500;SDS011;2263;54.654;9.410;2023-04-09T22:06:33;24.20;;;14.27;;
4500;SDS011;2263;54.654;9.410;2023-04-09T22:09:01;26.43;;;16.07;;
4500;SDS011;2263;54.654;9.410;2023-04-09T22:11:29;24.40;;;13.87;;
4500;SDS011;2263;54.654;9.410;2023-04-09T22:13:56;22.77;;;14.80;;
4500;SDS011;2263;54.654;9.410;2023-04-09T22:16:24;27.33;;;14.97;;
4500;SDS011;2263;54.654;9.410;2023-04-09T22:18:52;23.60;;;14.80;;
4500;SDS011;2263;54.654;9.410;2023-04-09T22:21:20;29.23;;;15.90;;
4500;SDS011;2263;54.654;9.410;2023-04-09T22:23:48;23.50;;;15.20;;
4500;SDS011;2263;54.654;9.410;2023-04-09T22:26:15;25.77;;;15.60;;
4500;SDS011;2263;54.654;9.410;2023-04-09T22:28:43;20.90;;;13.90;;
4500;SDS011;2263;54.654;9.410;2023-04-09T22:31:11;23.40;;;16.03;;
4500;SDS011;2263;54.654;9.410;2023-04-09T22:33:38;25.80;;;15.80;;
4500;SDS011;2263;54.654;9.410;2023-04-09T22:36:06;27.50;;;15.50;;
4500;SDS011;2263;54.654;9.410;2023-04-09T22:38:34;22.27;;;14.27;;
4500;SDS011;2263;54.654;9.410;2023-04-09T22:41:01;23.83;;;13.77;;
4500;SDS011;2263;54.654;9.410;2023-04-09T22:43:29;30.80;;;16.20;;
4500;SDS011;2263;54.654;9.410;2023-04-09T22:45:57;26.07;;;15.60;;
4500;SDS011;2263;54.654;9.410;2023-04-09T22:48:24;20.90;;;14.20;;
4500;SDS011;2263;54.654;9.410;2023-04-09T22:50:52;28.23;;;14.43;;
4500;SDS011;2263;54.654;9.410;2023-04-09T22:53:20;26.90;;;15.40;;
4500;SDS011;2263;54.654;9.410;2023-04-09T22:55:48;29.57;;;15.80;;
4500;SDS011;2263;54.654;9.410;2023-04-09T22:58:17;31.67;;;15.80;;
4500;SDS011;2263;54.654;9.410;2023-04-09T23:00:45;26.97;;;15.10;;
4500;SDS011;2263;54.654;9.410;2023-04-09T23:03:13;20.00;;;14.33;;
4500;SDS011;2263;54.654;9.410;2023-04-09T23:05:41;22.07;;;15.97;;
4500;SDS011;2263;54.654;9.410;2023-04-09T23:08:09;28.80;;;14.90;;
4500;SDS011;2263;54.654;9.410;2023-04-09T23:10:37;33.20;;;15.93;;
4500;SDS011;2263;54.654;9.410;2023-04-09T23:13:05;34.80;;;17.17;;
4500;SDS011;2263;54.654;9.410;2023-04-09T23:15:32;21.80;;;14.73;;
4500;SDS011;2263;54.654;9.410;2023-04-09T23:18:00;29.57;;;16.00;;
4500;SDS011;2263;54.654;9.410;2023-04-09T23:20:28;26.47;;;16.87;;
4500;SDS011;2263;54.654;9.410;2023-04-09T23:22:55;25.20;;;16.17;;
4500;SDS011;2263;54.654;9.410;2023-04-09T23:25:23;25.67;;;15.00;;
4500;SDS011;2263;54.654;9.410;2023-04-09T23:27:50;26.00;;;16.10;;
4500;SDS011;2263;54.654;9.410;2023-04-09T23:30:18;25.40;;;17.63;;
4500;SDS011;2263;54.654;9.410;2023-04-09T23:32:47;27.33;;;15.93;;
4500;SDS011;2263;54.654;9.410;2023-04-09T23:35:14;19.70;;;15.10;;
4500;SDS011;2263;54.654;9.410;2023-04-09T23:37:42;24.20;;;16.37;;
4500;SDS011;2263;54.654;9.410;2023-04-09T23:40:10;29.47;;;16.87;;
4500;SDS011;2263;54.654;9.410;2023-04-09T23:42:38;32.23;;;18.37;;
4500;SDS011;2263;54.654;9.410;2023-04-09T23:45:05;28.13;;;18.33;;
4500;SDS011;2263;54.654;9.410;2023-04-09T23:47:34;38.00;;;17.90;;
4500;SDS011;2263;54.654;9.410;2023-04-09T23:50:05;35.47;;;16.67;;
4500;SDS011;2263;54.654;9.410;2023-04-09T23:52:34;31.60;;;18.63;;
4500;SDS011;2263;54.654;9.410;2023-04-09T23:55:03;28.77;;;17.57;;
4500;SDS011;2263;54.654;9.410;2023-04-09T23:57:34;27.90;;;16.03;;
